Benllech, United Kingdom
Current Conditions -  °F | °C
As of 5:50 PM on Tuesday 21 Oct 2014 (Local Time) from EGOV Reporting Station
Few Clouds Few Clouds  
Wind Chill: 52°   Ceiling: Unl
Heat Index: 52°   Visibility: 6mi
Dew Point: 37°   Wind: 29mph
Humidity: 58%   Direction: 310°NW
Pressure: 30"   Gusts: NA
Location:  53.32°N, 4.23°W
Report Text: EGOV 211650Z 31025KT 9999 FEW040 11/03 Q1016 BLU NOSIG
Loading
Personal Weather Stations






























Interactive Weather Map
Tropical Storm Tracking
New forecast layout! Learn more

10-Day Weather Forecast

Advertisements
Track Severe Weather on mobile